createdAt,value
2023-03-21T00:00:30.138Z,99.90
2023-03-21T00:02:57.371Z,99.90
2023-03-21T00:05:24.547Z,99.90
2023-03-21T00:07:52.038Z,99.90
2023-03-21T00:10:33.063Z,99.90
2023-03-21T00:13:05.713Z,99.90
2023-03-21T00:15:44.078Z,99.90
2023-03-21T00:18:24.529Z,99.90
2023-03-21T00:21:35.531Z,99.90
2023-03-21T00:23:51.096Z,99.90
2023-03-21T00:26:18.253Z,99.90
2023-03-21T00:28:45.230Z,99.90
2023-03-21T00:31:13.060Z,99.90
2023-03-21T00:33:41.065Z,99.90
2023-03-21T00:36:16.069Z,99.90
2023-03-21T00:38:43.762Z,99.90
2023-03-21T00:41:25.810Z,99.90
2023-03-21T00:43:58.912Z,99.90
2023-03-21T00:46:39.864Z,99.90
2023-03-21T00:49:09.670Z,99.90
2023-03-21T00:51:36.767Z,99.90
2023-03-21T00:54:05.757Z,99.90
2023-03-21T00:56:33.068Z,99.90
2023-03-21T00:59:00.241Z,99.90
2023-03-21T01:01:32.039Z,99.90
2023-03-21T01:04:05.239Z,99.90
2023-03-21T01:06:39.531Z,99.90
2023-03-21T01:09:15.285Z,99.90
2023-03-21T01:11:44.375Z,99.90
2023-03-21T01:14:23.312Z,99.90
2023-03-21T01:16:54.267Z,99.90
2023-03-21T01:19:44.249Z,99.90
2023-03-21T01:22:15.631Z,99.90
2023-03-21T01:24:52.355Z,99.90
2023-03-21T01:27:22.607Z,99.90
2023-03-21T01:29:49.740Z,99.90
2023-03-21T01:32:17.156Z,99.90
2023-03-21T01:34:44.352Z,99.90
2023-03-21T01:37:11.743Z,99.90
2023-03-21T01:39:45.666Z,99.90
2023-03-21T01:42:15.583Z,99.90
2023-03-21T01:45:05.160Z,99.90
2023-03-21T01:47:46.595Z,99.90
2023-03-21T01:50:44.015Z,99.90
2023-03-21T01:53:30.174Z,99.90
2023-03-21T01:56:01.881Z,99.90
2023-03-21T01:58:57.597Z,99.90
2023-03-21T02:01:45.776Z,99.90
2023-03-21T02:04:14.707Z,99.90
2023-03-21T02:07:00.589Z,99.90
2023-03-21T02:09:42.186Z,99.90
2023-03-21T02:12:17.263Z,99.90
2023-03-21T02:14:49.322Z,99.90
2023-03-21T02:17:36.094Z,99.90
2023-03-21T02:20:43.594Z,99.90
2023-03-21T02:23:54.182Z,99.90
2023-03-21T02:26:40.857Z,99.90
2023-03-21T02:29:53.629Z,99.90
2023-03-21T02:33:31.593Z,99.90
2023-03-21T02:36:46.675Z,99.90
2023-03-21T02:39:32.965Z,99.90
2023-03-21T02:42:15.226Z,99.90
2023-03-21T02:44:54.424Z,99.90
2023-03-21T02:47:33.750Z,99.90
2023-03-21T02:50:33.754Z,99.90
2023-03-21T02:53:07.064Z,99.90
2023-03-21T02:55:37.645Z,99.90
2023-03-21T02:58:13.502Z,99.90
2023-03-21T03:00:55.400Z,99.90
2023-03-21T03:03:34.790Z,99.90
2023-03-21T03:06:17.786Z,99.90
2023-03-21T03:09:02.525Z,99.90
2023-03-21T03:11:40.033Z,99.90
2023-03-21T03:14:53.164Z,99.90
2023-03-21T03:17:39.498Z,99.90
2023-03-21T03:20:32.914Z,99.90
2023-03-21T03:23:21.445Z,99.90
2023-03-21T03:26:09.273Z,99.90
2023-03-21T03:28:44.587Z,99.90
2023-03-21T03:31:27.923Z,99.90
2023-03-21T03:34:08.322Z,99.90
2023-03-21T03:36:44.731Z,99.90
2023-03-21T03:39:16.927Z,99.90
2023-03-21T03:42:15.482Z,99.90
2023-03-21T03:44:54.191Z,99.90
2023-03-21T03:47:57.253Z,99.90
2023-03-21T03:50:51.053Z,99.90
2023-03-21T03:53:31.978Z,99.90
2023-03-21T03:56:01.500Z,99.90
2023-03-21T03:58:43.226Z,99.90
2023-03-21T04:01:14.298Z,99.90
2023-03-21T04:03:50.702Z,99.90
2023-03-21T04:06:22.087Z,99.90
2023-03-21T04:08:51.039Z,99.90
2023-03-21T04:11:18.484Z,99.90
2023-03-21T04:13:50.845Z,99.90
2023-03-21T04:16:23.412Z,99.90
2023-03-21T04:18:50.756Z,99.90
2023-03-21T04:21:19.236Z,99.90
2023-03-21T04:23:46.428Z,99.90
2023-03-21T04:26:14.295Z,99.90
2023-03-21T04:28:51.731Z,99.90
2023-03-21T04:31:57.146Z,99.90
2023-03-21T04:34:27.997Z,99.90
2023-03-21T04:36:58.357Z,99.90
2023-03-21T04:39:25.496Z,99.90
2023-03-21T04:41:52.657Z,99.90
2023-03-21T04:44:20.086Z,99.90
2023-03-21T04:46:47.125Z,99.90
2023-03-21T04:49:14.798Z,99.90
2023-03-21T04:51:45.187Z,99.90
2023-03-21T04:56:42.759Z,99.90
2023-03-21T04:59:14.521Z,99.90
2023-03-21T05:01:43.620Z,99.90
2023-03-21T05:04:13.471Z,99.90
2023-03-21T05:06:44.535Z,99.90
2023-03-21T05:09:12.777Z,99.90
2023-03-21T05:11:41.113Z,99.90
2023-03-21T05:14:16.604Z,99.90
2023-03-21T05:16:48.699Z,99.90
2023-03-21T05:19:17.486Z,99.90
2023-03-21T05:21:45.590Z,99.90
2023-03-21T05:24:21.080Z,99.90
2023-03-21T05:26:52.276Z,99.90
2023-03-21T05:29:22.542Z,99.90
2023-03-21T05:32:01.871Z,99.90
2023-03-21T05:34:29.657Z,99.90
2023-03-21T05:36:56.952Z,99.90
2023-03-21T05:39:26.808Z,99.90
2023-03-21T05:42:04.208Z,99.90
2023-03-21T05:44:31.422Z,99.90
2023-03-21T05:47:00.452Z,99.90
2023-03-21T05:49:37.192Z,99.90
2023-03-21T05:52:05.355Z,99.90
2023-03-21T05:54:32.333Z,99.90
2023-03-21T05:56:59.591Z,99.90
2023-03-21T05:59:45.950Z,99.90
2023-03-21T06:02:13.370Z,99.90
2023-03-21T06:04:41.376Z,99.90
2023-03-21T06:07:08.857Z,99.90
2023-03-21T06:09:41.185Z,99.90
2023-03-21T06:12:08.520Z,99.90
2023-03-21T06:14:58.131Z,99.90
2023-03-21T06:17:32.288Z,99.90
2023-03-21T06:20:07.574Z,99.90
2023-03-21T06:22:41.920Z,99.90
2023-03-21T06:25:09.652Z,99.90
2023-03-21T06:27:37.693Z,99.90
2023-03-21T06:30:08.384Z,99.90
2023-03-21T06:32:42.431Z,99.90
2023-03-21T06:35:13.573Z,99.90
2023-03-21T06:37:40.720Z,99.90
2023-03-21T06:40:09.681Z,99.90
2023-03-21T06:42:36.894Z,99.90
2023-03-21T06:45:10.637Z,99.90
2023-03-21T06:47:38.020Z,99.90
2023-03-21T06:50:11.113Z,99.90
2023-03-21T06:52:42.178Z,99.90
2023-03-21T06:55:10.030Z,99.90
2023-03-21T06:57:38.044Z,99.90
2023-03-21T07:00:09.646Z,99.90
2023-03-21T07:02:41.434Z,99.90
2023-03-21T07:05:20.345Z,99.90
2023-03-21T07:07:48.633Z,99.90
2023-03-21T07:10:16.042Z,99.90
2023-03-21T07:12:58.910Z,99.90
2023-03-21T07:15:38.309Z,99.90
2023-03-21T07:18:09.251Z,99.90
2023-03-21T07:20:38.037Z,99.90
2023-03-21T07:23:06.062Z,99.90
2023-03-21T07:25:33.698Z,99.90
2023-03-21T07:28:01.191Z,99.90
2023-03-21T07:30:28.388Z,99.90
2023-03-21T07:32:55.599Z,99.90
2023-03-21T07:35:22.765Z,99.90
2023-03-21T07:37:49.768Z,99.90
2023-03-21T07:40:18.583Z,99.90
2023-03-21T07:42:49.648Z,99.90
2023-03-21T07:45:26.956Z,99.90
2023-03-21T07:47:54.529Z,99.90
2023-03-21T07:50:21.769Z,99.90
2023-03-21T07:52:49.135Z,99.90
2023-03-21T07:55:17.336Z,99.90
2023-03-21T07:57:44.538Z,99.90
2023-03-21T08:00:14.464Z,99.90
2023-03-21T08:02:42.614Z,99.90
2023-03-21T08:05:11.521Z,99.90
2023-03-21T08:07:40.128Z,99.90
2023-03-21T08:10:08.300Z,99.90
2023-03-21T08:12:35.345Z,99.90
2023-03-21T08:15:02.336Z,99.90
2023-03-21T08:17:29.384Z,99.90
2023-03-21T08:19:56.430Z,99.90
2023-03-21T08:22:23.395Z,99.90
2023-03-21T08:24:50.521Z,99.90
2023-03-21T08:27:17.580Z,99.90
2023-03-21T08:29:44.650Z,99.90
2023-03-21T08:32:12.420Z,99.90
2023-03-21T08:34:39.454Z,99.90
2023-03-21T08:37:07.108Z,99.90
2023-03-21T08:39:34.004Z,99.90
2023-03-21T08:42:01.018Z,99.90
2023-03-21T08:44:27.963Z,99.90
2023-03-21T08:46:55.028Z,99.90
2023-03-21T08:49:21.945Z,99.90
2023-03-21T08:51:48.957Z,99.90
2023-03-21T08:54:23.533Z,99.90
2023-03-21T08:56:50.546Z,99.90
2023-03-21T08:59:17.554Z,99.90
2023-03-21T09:01:45.187Z,99.90
2023-03-21T09:04:12.411Z,99.90
2023-03-21T09:06:49.781Z,99.90
2023-03-21T09:09:16.765Z,99.90
2023-03-21T09:11:44.043Z,99.90
2023-03-21T09:14:11.824Z,99.90
2023-03-21T09:16:39.761Z,99.90
2023-03-21T09:19:08.597Z,99.90
2023-03-21T09:21:36.525Z,99.90
2023-03-21T09:24:06.195Z,99.90
2023-03-21T09:26:33.594Z,99.90
2023-03-21T09:29:01.039Z,99.90
2023-03-21T09:31:31.345Z,99.90
2023-03-21T09:33:58.889Z,99.90
2023-03-21T09:36:27.283Z,99.90
2023-03-21T09:38:56.948Z,99.90
2023-03-21T09:42:12.659Z,99.90
2023-03-21T09:45:01.740Z,99.90
2023-03-21T09:47:34.787Z,99.90
2023-03-21T09:50:20.677Z,99.90
2023-03-21T09:53:21.077Z,99.90
2023-03-21T09:55:48.324Z,99.90
2023-03-21T09:58:52.994Z,99.90
2023-03-21T10:01:32.856Z,99.90
2023-03-21T10:04:07.491Z,99.90
2023-03-21T10:06:42.842Z,99.90
2023-03-21T10:09:24.630Z,99.90
2023-03-21T10:12:01.802Z,99.90
2023-03-21T10:14:32.964Z,99.90
2023-03-21T10:17:27.952Z,99.90
2023-03-21T10:20:26.239Z,99.90
2023-03-21T10:22:57.518Z,99.90
2023-03-21T10:25:33.403Z,99.90
2023-03-21T10:28:04.433Z,99.90
2023-03-21T10:30:52.895Z,99.90
2023-03-21T10:33:42.725Z,99.90
2023-03-21T10:36:11.850Z,99.90
2023-03-21T10:38:49.165Z,99.90
2023-03-21T10:41:17.007Z,99.90
2023-03-21T10:43:45.845Z,99.90
2023-03-21T10:46:21.305Z,99.90
2023-03-21T10:48:53.875Z,99.90
2023-03-21T10:51:30.277Z,99.90
2023-03-21T10:54:08.467Z,99.90
2023-03-21T10:56:40.727Z,99.90
2023-03-21T10:59:19.449Z,99.90
2023-03-21T11:01:52.624Z,99.90
2023-03-21T11:04:26.652Z,99.90
2023-03-21T11:06:57.606Z,99.90
2023-03-21T11:09:42.672Z,99.90
2023-03-21T11:12:28.103Z,99.90
2023-03-21T11:14:55.364Z,99.90
2023-03-21T11:17:28.479Z,99.90
2023-03-21T11:20:10.635Z,99.90
2023-03-21T11:22:43.487Z,99.90
2023-03-21T11:25:22.340Z,99.90
2023-03-21T11:27:53.943Z,99.90
2023-03-21T11:30:26.547Z,99.90
2023-03-21T11:33:03.403Z,99.90
2023-03-21T11:35:38.988Z,99.90
2023-03-21T11:38:26.028Z,99.90
2023-03-21T11:40:58.314Z,99.90
2023-03-21T11:43:37.214Z,99.90
2023-03-21T11:46:14.892Z,99.90
2023-03-21T11:48:47.002Z,99.90
2023-03-21T11:51:41.742Z,99.90
2023-03-21T11:54:38.210Z,99.90
2023-03-21T11:57:48.323Z,99.90
2023-03-21T12:00:26.280Z,99.90
2023-03-21T12:03:47.441Z,99.90
2023-03-21T12:06:46.537Z,99.90
2023-03-21T12:09:45.923Z,99.90
2023-03-21T12:12:38.494Z,99.90
2023-03-21T12:15:29.393Z,99.90
2023-03-21T12:18:34.698Z,99.90
2023-03-21T12:21:33.415Z,99.90
2023-03-21T12:24:18.570Z,99.90
2023-03-21T12:27:12.803Z,99.90
2023-03-21T12:30:15.646Z,99.90
2023-03-21T12:32:58.418Z,99.90
2023-03-21T12:35:51.067Z,99.90
2023-03-21T12:38:28.217Z,99.90
2023-03-21T12:41:17.453Z,99.90
2023-03-21T12:44:00.571Z,99.90
2023-03-21T12:46:47.641Z,99.90
2023-03-21T12:49:35.934Z,99.90
2023-03-21T12:52:14.360Z,99.90
2023-03-21T12:55:11.480Z,99.90
2023-03-21T12:57:57.437Z,99.90
2023-03-21T13:00:43.528Z,99.90
2023-03-21T13:03:30.234Z,99.90
2023-03-21T13:06:13.103Z,99.90
2023-03-21T13:08:54.270Z,99.90
2023-03-21T13:11:29.224Z,99.90
2023-03-21T13:14:26.615Z,99.90
2023-03-21T13:17:31.213Z,99.90
2023-03-21T13:20:14.680Z,99.90
2023-03-21T13:22:41.619Z,99.90
2023-03-21T13:25:23.504Z,99.90
2023-03-21T13:28:30.258Z,99.90
2023-03-21T13:31:21.562Z,99.50
2023-03-21T13:33:51.845Z,99.70
2023-03-21T13:36:29.810Z,99.90
2023-03-21T13:39:05.612Z,99.50
2023-03-21T13:41:39.886Z,99.30
2023-03-21T13:44:41.382Z,99.40
2023-03-21T13:47:56.811Z,99.30
2023-03-21T13:50:50.425Z,98.90
2023-03-21T13:53:24.508Z,99.00
2023-03-21T13:56:12.504Z,98.80
2023-03-21T13:58:45.863Z,98.40
2023-03-21T14:01:30.265Z,98.90
2023-03-21T14:04:17.586Z,98.20
2023-03-21T14:07:02.053Z,98.10
2023-03-21T14:09:36.670Z,98.30
2023-03-21T14:12:09.387Z,97.60
2023-03-21T14:14:44.671Z,97.80
2023-03-21T14:17:26.532Z,97.70
2023-03-21T14:20:01.037Z,97.70
2023-03-21T14:22:29.806Z,97.30
2023-03-21T14:25:01.702Z,97.50
2023-03-21T14:27:34.246Z,97.40
2023-03-21T14:30:03.362Z,97.30
2023-03-21T14:32:31.162Z,97.50
2023-03-21T14:35:01.326Z,97.60
2023-03-21T14:37:38.373Z,97.40
2023-03-21T14:40:20.825Z,97.30
2023-03-21T14:42:49.782Z,97.30
2023-03-21T14:45:20.694Z,97.50
2023-03-21T14:48:12.009Z,97.40
2023-03-21T14:50:54.094Z,97.20
2023-03-21T14:53:29.883Z,97.50
2023-03-21T14:56:01.988Z,98.00
2023-03-21T14:58:34.178Z,98.00
2023-03-21T15:01:06.410Z,97.60
2023-03-21T15:03:34.728Z,97.60
2023-03-21T15:06:02.185Z,97.50
2023-03-21T15:08:29.772Z,97.50
2023-03-21T15:11:08.166Z,97.50
2023-03-21T15:13:54.800Z,97.60
2023-03-21T15:16:23.107Z,97.40
2023-03-21T15:18:51.455Z,97.70
2023-03-21T15:21:30.282Z,97.70
2023-03-21T15:24:13.829Z,97.70
2023-03-21T15:26:46.393Z,97.80
2023-03-21T15:29:16.417Z,98.00
2023-03-21T15:31:44.727Z,98.20
2023-03-21T15:34:28.729Z,98.60
2023-03-21T15:37:05.540Z,98.70
2023-03-21T15:39:36.073Z,99.10
2023-03-21T15:42:27.654Z,99.50
2023-03-21T15:45:00.750Z,99.60
2023-03-21T15:47:41.550Z,99.30
2023-03-21T15:50:23.883Z,98.80
2023-03-21T15:52:54.195Z,98.50
2023-03-21T15:55:39.388Z,98.70
2023-03-21T15:58:16.226Z,98.40
2023-03-21T16:00:52.206Z,98.30
2023-03-21T16:03:27.387Z,98.10
2023-03-21T16:06:14.289Z,98.00
2023-03-21T16:08:46.899Z,97.90
2023-03-21T16:11:18.979Z,97.80
2023-03-21T16:13:46.495Z,97.90
2023-03-21T16:16:28.603Z,97.90
2023-03-21T16:18:58.592Z,97.90
2023-03-21T16:21:30.259Z,98.00
2023-03-21T16:23:58.287Z,98.20
2023-03-21T16:26:41.606Z,98.20
2023-03-21T16:29:12.297Z,98.40
2023-03-21T16:31:39.400Z,98.40
2023-03-21T16:34:07.112Z,98.60
2023-03-21T16:36:38.116Z,98.70
2023-03-21T16:39:17.191Z,98.90
2023-03-21T16:41:44.784Z,99.00
2023-03-21T16:44:11.846Z,99.10
2023-03-21T16:46:39.076Z,99.20
2023-03-21T16:49:16.919Z,99.30
2023-03-21T16:51:44.102Z,99.50
2023-03-21T16:54:11.203Z,99.60
2023-03-21T16:56:44.019Z,99.80
2023-03-21T16:59:13.768Z,99.90
2023-03-21T17:01:42.424Z,99.90
2023-03-21T17:04:09.628Z,99.90
2023-03-21T17:06:54.495Z,99.90
2023-03-21T17:09:27.205Z,99.90
2023-03-21T17:11:54.146Z,99.90
2023-03-21T17:14:22.142Z,99.90
2023-03-21T17:16:50.118Z,99.90
2023-03-21T17:19:26.333Z,99.90
2023-03-21T17:21:53.614Z,99.90
2023-03-21T17:24:20.916Z,99.90
2023-03-21T17:26:47.875Z,99.90
2023-03-21T17:29:15.585Z,99.90
2023-03-21T17:31:43.903Z,99.90
2023-03-21T17:34:11.135Z,99.90
2023-03-21T17:36:42.136Z,99.90
2023-03-21T17:39:26.933Z,99.90
2023-03-21T17:41:54.458Z,99.90
2023-03-21T17:44:21.705Z,99.90
2023-03-21T17:46:51.580Z,99.90
2023-03-21T17:49:20.021Z,99.90
2023-03-21T17:51:47.222Z,99.90
2023-03-21T17:54:14.273Z,99.90
2023-03-21T17:56:42.084Z,99.90
2023-03-21T17:59:13.874Z,99.90
2023-03-21T18:01:42.060Z,99.90
2023-03-21T18:04:09.380Z,99.90
2023-03-21T18:06:37.449Z,99.90
2023-03-21T18:09:13.396Z,99.90
2023-03-21T18:11:41.106Z,99.90
2023-03-21T18:14:16.262Z,99.90
2023-03-21T18:16:45.502Z,99.90
2023-03-21T18:19:13.298Z,99.90
2023-03-21T18:21:41.110Z,99.90
2023-03-21T18:24:08.240Z,99.90
2023-03-21T18:26:35.577Z,99.90
2023-03-21T18:32:05.146Z,99.90
2023-03-21T18:34:32.957Z,99.90
2023-03-21T18:37:04.027Z,99.90
2023-03-21T18:39:33.308Z,99.90
2023-03-21T18:42:02.595Z,99.90
2023-03-21T18:44:37.530Z,99.90
2023-03-21T18:47:06.653Z,99.90
2023-03-21T18:52:21.356Z,99.90
2023-03-21T18:54:48.935Z,99.90
2023-03-21T18:57:35.682Z,99.90
2023-03-21T19:00:17.143Z,99.90
2023-03-21T19:02:50.560Z,99.90
2023-03-21T19:05:22.655Z,99.90
2023-03-21T19:07:51.723Z,99.90
2023-03-21T19:10:21.277Z,99.90
2023-03-21T19:12:53.427Z,99.90
2023-03-21T19:15:24.033Z,99.90
2023-03-21T19:20:46.867Z,99.90
2023-03-21T19:23:16.243Z,99.90
2023-03-21T19:25:44.413Z,99.90
2023-03-21T19:28:11.395Z,99.90
2023-03-21T19:30:39.243Z,99.90
2023-03-21T19:33:06.432Z,99.90
2023-03-21T19:35:37.322Z,99.90
2023-03-21T19:38:04.496Z,99.90
2023-03-21T19:40:32.123Z,99.90
2023-03-21T19:43:14.371Z,99.90
2023-03-21T19:45:49.409Z,99.90
2023-03-21T19:48:17.174Z,99.90
2023-03-21T19:51:20.098Z,99.90
2023-03-21T19:53:34.352Z,99.90
2023-03-21T19:56:03.853Z,99.90
2023-03-21T19:58:34.698Z,99.90
2023-03-21T20:01:01.747Z,99.90
2023-03-21T20:03:28.766Z,99.90
2023-03-21T20:06:09.804Z,99.90
2023-03-21T20:09:05.312Z,99.90
2023-03-21T20:11:24.454Z,99.90
2023-03-21T20:13:51.346Z,99.90
2023-03-21T20:16:18.492Z,99.90
2023-03-21T20:18:46.868Z,99.90
2023-03-21T20:21:17.930Z,99.90
2023-03-21T20:23:49.400Z,99.90
2023-03-21T20:26:17.606Z,99.90
2023-03-21T20:28:56.627Z,99.90
2023-03-21T20:31:33.126Z,99.90
2023-03-21T20:34:00.144Z,99.90
2023-03-21T20:36:43.771Z,99.90
2023-03-21T20:39:11.786Z,99.90
2023-03-21T20:41:39.472Z,99.90
2023-03-21T20:44:41.663Z,99.90
2023-03-21T20:46:53.870Z,99.90
2023-03-21T20:49:23.100Z,99.90
2023-03-21T20:52:46.243Z,99.90
2023-03-21T20:54:37.829Z,99.90
2023-03-21T20:57:05.398Z,99.90
2023-03-21T20:59:32.712Z,99.90
2023-03-21T21:02:00.207Z,99.90
2023-03-21T21:04:48.121Z,99.90
2023-03-21T21:07:21.972Z,99.90
2023-03-21T21:09:50.041Z,99.90
2023-03-21T21:12:19.465Z,99.90
2023-03-21T21:14:48.263Z,99.90
2023-03-21T21:20:17.620Z,99.90
2023-03-21T21:22:58.976Z,99.90
2023-03-21T21:25:30.453Z,99.90
2023-03-21T21:27:57.672Z,99.90
2023-03-21T21:30:24.943Z,99.90
2023-03-21T21:32:52.051Z,99.90
2023-03-21T21:35:20.710Z,99.90
2023-03-21T21:37:48.987Z,99.90
2023-03-21T21:40:20.393Z,99.90
2023-03-21T21:42:48.212Z,99.90
2023-03-21T21:45:16.078Z,99.90
2023-03-21T21:47:46.292Z,99.90
2023-03-21T21:50:14.298Z,99.90
2023-03-21T21:52:43.813Z,99.90
2023-03-21T21:55:13.317Z,99.90
2023-03-21T21:57:41.148Z,99.90
2023-03-21T22:00:13.571Z,99.90
2023-03-21T22:02:41.489Z,99.90
2023-03-21T22:05:09.568Z,99.90
2023-03-21T22:07:38.009Z,99.90
2023-03-21T22:10:06.616Z,99.90
2023-03-21T22:12:33.858Z,99.90
2023-03-21T22:15:01.165Z,99.90
2023-03-21T22:17:28.125Z,99.90
2023-03-21T22:20:05.241Z,99.90
2023-03-21T22:22:34.477Z,99.90
2023-03-21T22:25:01.978Z,99.90
2023-03-21T22:27:29.390Z,99.90
2023-03-21T22:29:56.416Z,99.90
2023-03-21T22:32:23.820Z,99.90
2023-03-21T22:34:50.847Z,99.90
2023-03-21T22:37:17.953Z,99.90
2023-03-21T22:39:44.856Z,99.90
2023-03-21T22:42:11.929Z,99.90
2023-03-21T22:44:38.892Z,99.90
2023-03-21T22:47:10.668Z,99.90
2023-03-21T22:49:40.092Z,99.90
2023-03-21T22:52:07.241Z,99.90
2023-03-21T22:54:34.573Z,99.90
2023-03-21T22:57:01.878Z,99.90
2023-03-21T22:59:29.147Z,99.90
2023-03-21T23:01:56.970Z,99.90
2023-03-21T23:04:26.734Z,99.90
2023-03-21T23:06:54.444Z,99.90
2023-03-21T23:09:21.399Z,99.90
2023-03-21T23:11:49.658Z,99.90
2023-03-21T23:14:21.671Z,99.90
2023-03-21T23:16:52.177Z,99.90
2023-03-21T23:19:21.799Z,99.90
2023-03-21T23:21:49.055Z,99.90
2023-03-21T23:24:16.213Z,99.90
2023-03-21T23:26:43.188Z,99.90
2023-03-21T23:29:11.882Z,99.90
2023-03-21T23:31:38.890Z,99.90
2023-03-21T23:34:07.130Z,99.90
2023-03-21T23:36:34.115Z,99.90
2023-03-21T23:39:01.147Z,99.90
2023-03-21T23:41:28.089Z,99.90
2023-03-21T23:43:55.151Z,99.90
2023-03-21T23:46:22.148Z,99.90
2023-03-21T23:48:49.669Z,99.90
2023-03-21T23:51:18.043Z,99.90
2023-03-21T23:53:46.500Z,99.90
2023-03-21T23:56:21.035Z,99.90
2023-03-21T23:58:49.977Z,99.90
